createdAt,value
2023-05-12T00:01:45.022Z,10.10
2023-05-12T00:04:41.969Z,10.00
2023-05-12T00:07:38.866Z,10.10
2023-05-12T00:10:35.757Z,10.10
2023-05-12T00:13:32.624Z,10.10
2023-05-12T00:16:29.581Z,10.10
2023-05-12T00:19:26.797Z,10.20
2023-05-12T00:22:23.794Z,10.10
2023-05-12T00:25:20.626Z,10.00
2023-05-12T00:28:18.761Z,10.00
2023-05-12T00:31:16.209Z,10.10
2023-05-12T00:34:13.078Z,10.10
2023-05-12T00:37:11.049Z,10.20
2023-05-12T00:40:09.330Z,10.10
2023-05-12T00:43:06.210Z,9.90
2023-05-12T00:46:06.218Z,10.10
2023-05-12T00:49:03.311Z,10.10
2023-05-12T00:52:00.264Z,10.00
2023-05-12T00:54:58.542Z,10.00
2023-05-12T00:57:56.029Z,10.00
2023-05-12T01:00:52.887Z,9.90
2023-05-12T01:03:50.009Z,9.90
2023-05-12T01:07:07.519Z,9.90
2023-05-12T01:10:04.861Z,9.90
2023-05-12T01:13:01.682Z,9.80
2023-05-12T01:16:02.473Z,9.80
2023-05-12T01:19:00.364Z,9.90
2023-05-12T01:21:58.178Z,10.00
2023-05-12T01:25:02.588Z,9.90
2023-05-12T01:28:00.357Z,9.80
2023-05-12T01:30:57.330Z,9.80
2023-05-12T01:33:54.303Z,10.00
2023-05-12T01:36:51.221Z,9.80
2023-05-12T01:39:48.238Z,9.80
2023-05-12T01:42:45.110Z,9.90
2023-05-12T01:45:41.989Z,9.80
2023-05-12T01:48:38.852Z,9.80
2023-05-12T01:51:35.893Z,9.90
2023-05-12T01:54:32.869Z,9.90
2023-05-12T01:57:29.735Z,9.90
2023-05-12T02:00:27.284Z,9.90
2023-05-12T02:03:24.262Z,9.90
2023-05-12T02:06:22.294Z,9.90
2023-05-12T02:09:19.175Z,9.90
2023-05-12T02:12:16.044Z,10.00
2023-05-12T02:15:12.986Z,10.10
2023-05-12T02:18:09.886Z,10.10
2023-05-12T02:21:07.014Z,10.00
2023-05-12T02:24:04.105Z,10.00
2023-05-12T02:27:01.012Z,10.00
2023-05-12T02:29:57.848Z,9.90
2023-05-12T02:32:54.724Z,9.90
2023-05-12T02:35:51.555Z,10.00
2023-05-12T02:38:48.466Z,10.00
2023-05-12T02:41:45.401Z,10.00
2023-05-12T02:44:42.276Z,10.00
2023-05-12T02:47:39.212Z,9.90
2023-05-12T02:50:36.168Z,10.00
2023-05-12T02:53:33.050Z,10.00
2023-05-12T02:56:31.882Z,9.90
2023-05-12T02:59:30.699Z,9.80
2023-05-12T03:02:28.083Z,9.70
2023-05-12T03:05:25.026Z,9.80
2023-05-12T03:08:22.258Z,9.80
2023-05-12T03:11:19.083Z,9.70
2023-05-12T03:14:16.055Z,9.70
2023-05-12T03:17:13.040Z,9.60
2023-05-12T03:20:10.443Z,9.40
2023-05-12T03:23:07.299Z,9.50
2023-05-12T03:26:04.248Z,9.50
2023-05-12T03:29:01.115Z,9.50
2023-05-12T03:31:58.042Z,9.50
2023-05-12T03:34:55.175Z,9.50
2023-05-12T03:37:52.025Z,9.50
2023-05-12T03:40:52.837Z,9.70
2023-05-12T03:43:49.896Z,9.60
2023-05-12T03:46:46.952Z,9.60
2023-05-12T03:49:44.029Z,9.60
2023-05-12T03:52:41.450Z,9.60
2023-05-12T03:55:38.618Z,9.60
2023-05-12T03:58:35.852Z,9.70
2023-05-12T04:01:32.746Z,9.80
2023-05-12T04:04:29.687Z,9.80
2023-05-12T04:07:26.794Z,9.70
2023-05-12T04:10:23.631Z,9.60
2023-05-12T04:13:20.457Z,9.60
2023-05-12T04:16:17.304Z,9.60
2023-05-12T04:19:14.183Z,9.60
2023-05-12T04:22:11.057Z,9.60
2023-05-12T04:25:08.572Z,9.60
2023-05-12T04:28:05.698Z,9.60
2023-05-12T04:31:06.975Z,9.60
2023-05-12T04:34:03.901Z,9.70
2023-05-12T04:37:01.099Z,9.70
2023-05-12T04:39:57.920Z,9.80
2023-05-12T04:42:55.007Z,9.80
2023-05-12T04:45:54.194Z,9.90
2023-05-12T04:48:51.081Z,9.90
2023-05-12T04:51:48.183Z,9.90
2023-05-12T04:54:45.054Z,9.90
2023-05-12T04:57:41.895Z,10.00
2023-05-12T05:00:38.910Z,9.90
2023-05-12T05:03:35.999Z,10.00
2023-05-12T05:06:33.118Z,10.00
2023-05-12T05:09:30.068Z,10.10
2023-05-12T05:12:26.982Z,10.00
2023-05-12T05:15:23.811Z,10.10
2023-05-12T05:18:23.777Z,10.10
2023-05-12T05:21:21.190Z,10.20
2023-05-12T05:24:18.059Z,10.20
2023-05-12T05:27:14.911Z,10.20
2023-05-12T05:30:12.113Z,10.30
2023-05-12T05:33:09.098Z,10.30
2023-05-12T05:36:06.558Z,10.40
2023-05-12T05:39:03.456Z,10.40
2023-05-12T05:42:00.281Z,10.50
2023-05-12T05:44:57.186Z,10.50
2023-05-12T05:47:54.172Z,10.60
2023-05-12T05:50:52.917Z,10.70
2023-05-12T05:53:49.752Z,10.80
2023-05-12T05:56:46.611Z,10.90
2023-05-12T05:59:43.793Z,11.00
2023-05-12T06:02:41.999Z,10.90
2023-05-12T06:05:39.164Z,10.90
2023-05-12T06:08:35.993Z,11.10
2023-05-12T06:11:32.837Z,11.10
2023-05-12T06:14:29.719Z,11.20
2023-05-12T06:17:26.793Z,11.20
2023-05-12T06:20:23.726Z,11.20
2023-05-12T06:23:20.547Z,11.30
2023-05-12T06:26:17.517Z,11.40
2023-05-12T06:29:15.209Z,11.40
2023-05-12T06:32:12.065Z,11.40
2023-05-12T06:35:09.408Z,11.50
2023-05-12T06:38:06.524Z,11.40
2023-05-12T06:41:03.580Z,11.50
2023-05-12T06:44:02.322Z,11.50
2023-05-12T06:46:59.367Z,11.60
2023-05-12T06:49:56.199Z,11.70
2023-05-12T06:52:53.483Z,11.70
2023-05-12T06:55:51.140Z,11.60
2023-05-12T06:58:48.251Z,11.60
2023-05-12T07:01:45.316Z,11.60
2023-05-12T07:04:42.284Z,11.60
2023-05-12T07:07:39.112Z,11.70
2023-05-12T07:10:35.993Z,11.70
2023-05-12T07:13:44.767Z,11.90
2023-05-12T07:16:45.357Z,11.90
2023-05-12T07:19:43.550Z,11.80
2023-05-12T07:22:40.542Z,11.80
2023-05-12T07:25:38.005Z,11.80
2023-05-12T07:28:36.529Z,11.90
2023-05-12T07:31:34.071Z,11.90
2023-05-12T07:34:33.871Z,11.90
2023-05-12T07:37:30.713Z,12.00
2023-05-12T07:40:27.595Z,12.10
2023-05-12T07:43:24.730Z,12.20
2023-05-12T07:46:21.923Z,12.20
2023-05-12T07:49:18.884Z,12.40
2023-05-12T07:52:15.712Z,12.50
2023-05-12T07:55:12.560Z,12.70
2023-05-12T07:58:09.521Z,12.80
2023-05-12T08:01:06.942Z,13.10
2023-05-12T08:04:04.011Z,13.30
2023-05-12T08:07:01.142Z,13.70
2023-05-12T08:09:57.995Z,14.10
2023-05-12T08:12:55.289Z,14.40
2023-05-12T08:15:52.236Z,14.60
2023-05-12T08:18:49.175Z,14.90
2023-05-12T08:21:46.139Z,15.30
2023-05-12T08:24:43.273Z,16.10
2023-05-12T08:27:40.184Z,16.70
2023-05-12T08:30:37.472Z,16.40
2023-05-12T08:33:37.290Z,16.30
2023-05-12T08:36:34.332Z,16.10
2023-05-12T08:39:31.975Z,16.10
2023-05-12T08:42:44.465Z,16.80
2023-05-12T08:45:41.742Z,17.40
2023-05-12T08:48:40.502Z,18.60
2023-05-12T08:51:38.238Z,19.00
2023-05-12T08:54:48.569Z,18.90
2023-05-12T08:57:50.069Z,18.90
2023-05-12T09:00:47.972Z,19.80
2023-05-12T09:03:45.350Z,19.00
2023-05-12T09:06:43.500Z,18.80
2023-05-12T09:09:44.208Z,18.80
2023-05-12T09:12:42.740Z,19.10
2023-05-12T09:15:45.916Z,19.50
2023-05-12T09:18:55.427Z,20.30
2023-05-12T09:21:52.664Z,19.80
2023-05-12T09:24:49.748Z,20.10
2023-05-12T09:27:49.264Z,20.00
2023-05-12T09:30:46.202Z,19.80
2023-05-12T09:33:43.105Z,19.60
2023-05-12T09:36:40.008Z,18.60
2023-05-12T09:39:37.171Z,18.10
2023-05-12T09:42:35.668Z,17.80
2023-05-12T09:45:37.018Z,17.50
2023-05-12T09:48:34.057Z,17.30
2023-05-12T09:51:31.480Z,17.20
2023-05-12T09:54:30.369Z,17.30
2023-05-12T09:57:29.777Z,17.40
2023-05-12T10:00:41.186Z,17.30
2023-05-12T10:03:48.775Z,17.60
2023-05-12T10:06:47.407Z,17.30
2023-05-12T10:09:45.334Z,17.20
2023-05-12T10:12:42.445Z,17.10
2023-05-12T10:15:39.682Z,17.30
2023-05-12T10:18:37.280Z,17.50
2023-05-12T10:21:36.584Z,17.60
2023-05-12T10:24:34.558Z,17.40
2023-05-12T10:27:33.309Z,17.40
2023-05-12T10:30:31.080Z,17.40
2023-05-12T10:33:28.464Z,18.00
2023-05-12T10:36:26.032Z,18.30
2023-05-12T10:39:29.992Z,18.20
2023-05-12T10:42:27.044Z,18.10
2023-05-12T10:45:24.342Z,18.00
2023-05-12T10:48:21.157Z,17.70
2023-05-12T10:51:28.808Z,17.60
2023-05-12T10:54:26.777Z,17.60
2023-05-12T10:57:23.782Z,17.70
2023-05-12T11:00:26.777Z,17.10
2023-05-12T11:03:25.848Z,16.90
2023-05-12T11:06:24.209Z,17.00
2023-05-12T11:09:21.892Z,16.70
2023-05-12T11:12:19.235Z,16.70
2023-05-12T11:15:18.050Z,16.70
2023-05-12T11:18:21.804Z,16.60
2023-05-12T11:21:18.662Z,16.40
2023-05-12T11:24:16.663Z,16.30
2023-05-12T11:27:19.873Z,16.30
2023-05-12T11:30:17.120Z,16.10
2023-05-12T11:33:14.726Z,16.30
2023-05-12T11:36:11.571Z,16.40
2023-05-12T11:39:22.889Z,16.50
2023-05-12T11:42:21.161Z,16.60
2023-05-12T11:45:26.045Z,17.20
2023-05-12T11:48:31.956Z,17.70
2023-05-12T11:51:28.904Z,17.30
2023-05-12T11:54:28.046Z,16.80
2023-05-12T11:57:36.155Z,16.70
2023-05-12T12:00:35.940Z,16.70
2023-05-12T12:03:32.910Z,16.60
2023-05-12T12:06:29.800Z,16.70
2023-05-12T12:09:52.757Z,17.10
2023-05-12T12:12:49.634Z,17.20
2023-05-12T12:15:46.565Z,17.10
2023-05-12T12:18:43.486Z,17.20
2023-05-12T12:21:40.547Z,16.90
2023-05-12T12:24:37.405Z,16.80
2023-05-12T12:27:34.260Z,16.90
2023-05-12T12:30:31.452Z,17.10
2023-05-12T12:33:28.406Z,17.20
2023-05-12T12:36:25.284Z,17.20
2023-05-12T12:39:23.229Z,17.50
2023-05-12T12:42:20.182Z,17.80
2023-05-12T12:45:19.283Z,18.40
2023-05-12T12:48:18.458Z,18.70
2023-05-12T12:51:15.330Z,19.10
2023-05-12T12:54:12.173Z,18.90
2023-05-12T12:57:09.185Z,18.80
2023-05-12T13:00:08.537Z,18.50
2023-05-12T13:03:06.495Z,18.50
2023-05-12T13:06:09.140Z,18.40
2023-05-12T13:09:09.162Z,18.60
2023-05-12T13:12:06.766Z,18.30
2023-05-12T13:15:03.968Z,18.50
2023-05-12T13:18:01.094Z,18.50
2023-05-12T13:20:58.324Z,18.80
2023-05-12T13:23:55.257Z,18.70
2023-05-12T13:26:52.269Z,18.30
2023-05-12T13:29:49.243Z,18.00
2023-05-12T13:32:46.887Z,17.90
2023-05-12T13:35:43.768Z,18.00
2023-05-12T13:38:40.831Z,18.20
2023-05-12T13:41:37.727Z,18.10
2023-05-12T13:44:34.599Z,18.00
2023-05-12T13:47:31.500Z,18.10
2023-05-12T13:50:29.825Z,17.70
2023-05-12T13:53:27.902Z,17.00
2023-05-12T13:56:26.767Z,16.30
2023-05-12T13:59:23.704Z,16.50
2023-05-12T14:02:20.619Z,16.60
2023-05-12T14:05:17.750Z,17.00
2023-05-12T14:08:14.663Z,17.00
2023-05-12T14:11:11.555Z,17.10
2023-05-12T14:14:08.499Z,17.00
2023-05-12T14:17:05.446Z,16.70
2023-05-12T14:20:06.284Z,16.20
2023-05-12T14:23:03.205Z,15.90
2023-05-12T14:26:00.129Z,15.50
2023-05-12T14:28:57.293Z,16.30
2023-05-12T14:31:54.246Z,15.20
2023-05-12T14:34:51.137Z,15.10
2023-05-12T14:37:47.975Z,15.10
2023-05-12T14:40:46.320Z,14.40
2023-05-12T14:43:43.231Z,13.80
2023-05-12T14:46:40.080Z,14.00
2023-05-12T14:49:37.210Z,14.10
2023-05-12T14:52:38.304Z,13.70
2023-05-12T14:55:35.141Z,13.60
2023-05-12T14:58:32.111Z,13.80
2023-05-12T15:01:29.077Z,13.90
2023-05-12T15:04:27.156Z,13.70
2023-05-12T15:07:23.993Z,13.70
2023-05-12T15:10:20.867Z,13.90
2023-05-12T15:13:20.244Z,13.80
2023-05-12T15:16:17.328Z,13.80
2023-05-12T15:19:15.290Z,13.70
2023-05-12T15:22:12.292Z,13.80
2023-05-12T15:25:09.594Z,14.00
2023-05-12T15:28:09.670Z,14.30
2023-05-12T15:31:06.532Z,14.40
2023-05-12T15:34:03.463Z,14.60
2023-05-12T15:37:00.446Z,15.00
2023-05-12T15:39:57.336Z,14.70
2023-05-12T15:42:54.166Z,15.70
2023-05-12T15:45:50.990Z,16.60
2023-05-12T15:48:50.718Z,17.30
2023-05-12T15:51:47.577Z,17.30
2023-05-12T15:54:44.410Z,17.30
2023-05-12T15:57:41.560Z,17.30
2023-05-12T16:00:38.480Z,17.10
2023-05-12T16:03:35.362Z,16.80
2023-05-12T16:06:32.298Z,17.10
2023-05-12T16:09:29.120Z,17.30
2023-05-12T16:12:26.156Z,17.90
2023-05-12T16:15:23.085Z,17.70
2023-05-12T16:18:20.011Z,17.40
2023-05-12T16:21:16.878Z,17.20
2023-05-12T16:24:13.696Z,16.90
2023-05-12T16:27:10.587Z,16.90
2023-05-12T16:30:08.584Z,16.80
2023-05-12T16:33:07.194Z,16.90
2023-05-12T16:36:04.267Z,17.20
2023-05-12T16:39:01.103Z,17.50
2023-05-12T16:41:58.329Z,18.00
2023-05-12T16:44:55.258Z,18.30
2023-05-12T16:47:52.331Z,18.30
2023-05-12T16:50:49.235Z,18.90
2023-05-12T16:53:46.359Z,18.90
2023-05-12T16:56:43.202Z,18.70
2023-05-12T16:59:40.037Z,17.80
2023-05-12T17:02:37.089Z,17.30
2023-05-12T17:05:34.076Z,17.50
2023-05-12T17:08:30.968Z,17.70
2023-05-12T17:11:27.878Z,17.80
2023-05-12T17:14:24.760Z,17.90
2023-05-12T17:17:21.759Z,17.80
2023-05-12T17:20:18.930Z,17.50
2023-05-12T17:23:16.615Z,17.30
2023-05-12T17:26:13.457Z,16.90
2023-05-12T17:29:10.405Z,16.60
2023-05-12T17:32:07.480Z,16.60
2023-05-12T17:35:04.812Z,16.20
2023-05-12T17:38:01.986Z,16.20
2023-05-12T17:40:58.913Z,16.20
2023-05-12T17:43:55.823Z,16.20
2023-05-12T17:46:52.679Z,15.90
2023-05-12T17:49:49.538Z,15.90
2023-05-12T17:52:46.362Z,15.60
2023-05-12T17:55:43.199Z,15.40
2023-05-12T17:58:40.063Z,15.50
2023-05-12T18:01:36.968Z,15.20
2023-05-12T18:04:34.743Z,15.10
2023-05-12T18:07:32.143Z,15.00
2023-05-12T18:10:29.066Z,14.90
2023-05-12T18:13:25.894Z,14.70
2023-05-12T18:16:29.182Z,14.50
2023-05-12T18:19:27.401Z,14.20
2023-05-12T18:22:24.627Z,14.10
2023-05-12T18:25:21.599Z,14.10
2023-05-12T18:28:18.558Z,14.20
2023-05-12T18:31:19.473Z,14.00
2023-05-12T18:34:16.727Z,14.20
2023-05-12T18:37:15.531Z,14.10
2023-05-12T18:40:12.728Z,14.10
2023-05-12T18:43:09.584Z,13.80
2023-05-12T18:46:06.458Z,13.70
2023-05-12T18:49:03.811Z,13.50
2023-05-12T18:52:00.753Z,13.60
2023-05-12T18:54:57.683Z,13.50
2023-05-12T18:57:54.576Z,13.30
2023-05-12T19:00:52.651Z,13.10
2023-05-12T19:03:50.521Z,13.10
2023-05-12T19:06:47.857Z,13.00
2023-05-12T19:09:45.158Z,13.00
2023-05-12T19:12:42.171Z,13.10
2023-05-12T19:15:39.321Z,13.00
2023-05-12T19:18:36.183Z,12.80
2023-05-12T19:21:33.597Z,12.60
2023-05-12T19:24:30.556Z,12.50
2023-05-12T19:27:28.137Z,12.40
2023-05-12T19:30:26.787Z,12.30
2023-05-12T19:33:23.759Z,12.20
2023-05-12T19:36:20.611Z,12.20
2023-05-12T19:39:17.452Z,12.10
2023-05-12T19:42:14.354Z,12.20
2023-05-12T19:45:11.632Z,12.50
2023-05-12T19:48:08.657Z,12.60
2023-05-12T19:51:05.575Z,12.60
2023-05-12T19:54:04.749Z,12.70
2023-05-12T19:57:02.088Z,12.40
2023-05-12T19:59:58.920Z,12.40
2023-05-12T20:02:56.074Z,12.40
2023-05-12T20:05:53.170Z,12.20
2023-05-12T20:08:49.992Z,12.20
2023-05-12T20:11:46.829Z,12.10
2023-05-12T20:14:43.729Z,12.10
2023-05-12T20:17:40.598Z,12.10
2023-05-12T20:20:37.486Z,12.20
2023-05-12T20:23:34.378Z,12.10
2023-05-12T20:26:31.236Z,12.10
2023-05-12T20:29:30.210Z,12.50
2023-05-12T20:32:27.173Z,12.50
2023-05-12T20:35:24.204Z,12.30
2023-05-12T20:38:21.232Z,12.30
2023-05-12T20:41:18.676Z,12.00
2023-05-12T20:44:15.646Z,11.90
2023-05-12T20:47:13.086Z,11.90
2023-05-12T20:50:11.842Z,12.00
2023-05-12T20:53:08.682Z,12.10
2023-05-12T20:56:08.214Z,11.90
2023-05-12T20:59:05.376Z,11.90
2023-05-12T21:02:02.246Z,11.90
2023-05-12T21:04:59.205Z,11.80
2023-05-12T21:07:56.460Z,11.70
2023-05-12T21:10:54.436Z,11.90
2023-05-12T21:13:51.273Z,11.90
2023-05-12T21:16:48.176Z,12.00
2023-05-12T21:19:45.328Z,11.80
2023-05-12T21:22:42.718Z,11.70
2023-05-12T21:25:39.927Z,11.70
2023-05-12T21:28:37.426Z,11.60
2023-05-12T21:31:34.288Z,11.60
2023-05-12T21:34:33.513Z,11.80
2023-05-12T21:37:30.454Z,12.00
2023-05-12T21:40:27.301Z,12.00
2023-05-12T21:43:24.178Z,11.80
2023-05-12T21:46:21.239Z,11.50
2023-05-12T21:49:18.220Z,11.40
2023-05-12T21:52:15.981Z,11.30
2023-05-12T21:55:12.996Z,11.30
2023-05-12T21:58:09.831Z,11.60
2023-05-12T22:01:07.063Z,11.60
2023-05-12T22:04:05.134Z,11.40
2023-05-12T22:07:02.167Z,11.20
2023-05-12T22:09:58.990Z,11.10
2023-05-12T22:12:56.481Z,11.00
2023-05-12T22:15:53.595Z,11.10
2023-05-12T22:18:50.761Z,11.10
2023-05-12T22:21:47.711Z,10.90
2023-05-12T22:24:44.934Z,11.10
2023-05-12T22:27:41.846Z,11.00
2023-05-12T22:30:38.673Z,10.90
2023-05-12T22:33:35.726Z,10.90
2023-05-12T22:36:32.579Z,10.80
2023-05-12T22:39:29.404Z,10.80
2023-05-12T22:42:26.278Z,10.80
2023-05-12T22:45:23.095Z,10.80
2023-05-12T22:48:20.397Z,10.80
2023-05-12T22:51:17.247Z,10.70
2023-05-12T22:54:14.091Z,10.70
2023-05-12T22:57:11.013Z,10.70
2023-05-12T23:00:08.775Z,10.70
2023-05-12T23:03:07.252Z,10.70
2023-05-12T23:06:04.311Z,10.80
2023-05-12T23:09:01.472Z,10.70
2023-05-12T23:11:58.310Z,10.60
2023-05-12T23:14:55.220Z,10.50
2023-05-12T23:17:52.317Z,10.50
2023-05-12T23:20:49.195Z,10.60
2023-05-12T23:23:46.021Z,10.60
2023-05-12T23:26:42.860Z,10.60
2023-05-12T23:29:39.757Z,10.60
2023-05-12T23:32:36.762Z,10.50
2023-05-12T23:35:33.800Z,10.40
2023-05-12T23:38:31.139Z,10.30
2023-05-12T23:41:31.539Z,10.50
2023-05-12T23:44:28.476Z,10.50
2023-05-12T23:47:25.411Z,10.40
2023-05-12T23:50:22.528Z,10.40
2023-05-12T23:53:19.811Z,10.30
2023-05-12T23:56:16.665Z,10.30
2023-05-12T23:59:13.546Z,10.30
